LZKZ Airport Information

Runway Information
Runway 01 Length 10171 ft width 148 ft
Elevation 739 ft Threshold 0 ft Heading 13
Runway 19 Length 10171 ft Width 148 ft
Elevation 753 ft Threshold 0 ft Heading 193
Airport Frequencies
Type APP Name APP Frequency 119.85 MHZ
Type TWR Name TWR Frequency 120.4 MHZ
Airport Navaids
Type NDB Name Kosice Frequency 425 KHZ
Type VOR-DME Name Kosice Frequency 108200 KHZ
Airport Weather Information & NOTAM
ADDS - METARS form results

(1134 UTC 21 May 2022)
Data provider http://aviationweather.gov/metar/data/
 
METAR text: LZKZ 211130Z 05010KT CAVOK 26/15 Q1011 NOSIG
Conditions at: LZKZ (KOSICE BARCA , SK) observed 1130 UTC 21 May 2022
Temperature: 26.0°C (79°F)
Dewpoint: 15.0°C (59°F) [RH = 51%]
Pressure (altimeter): 29.85 inches Hg (1011.0 mb)
Winds: from the NE (50 degrees) at 12 MPH (10 knots; 5.1 m/s)
Visibility: 6 or more miles (10+ km)
Ceiling: ceiling and visibility are OK
Clouds: unknown
Weather: no significant weather observed at this time

METAR text: LZKZ 211100Z 33004KT 240V030 9999 SCT048 26/15 Q1011 NOSIG
Conditions at: LZKZ (KOSICE BARCA , SK) observed 1100 UTC 21 May 2022
Temperature: 26.0°C (79°F)
Dewpoint: 15.0°C (59°F) [RH = 51%]
Pressure (altimeter): 29.85 inches Hg (1011.0 mb)
Winds: from the NNW (330 degrees) at 5 MPH (4 knots; 2.1 m/s)
Visibility: 6 or more miles (10+ km)
Ceiling: at least 12,000 feet AGL
Clouds: scattered clouds at 4800 feet AGL
Weather: no significant weather observed at this time

Forecast for: LZKZ (KOSICE BARCA , SK)
Text: TAF LZKZ 211115Z 2112/2212 02013KT CAVOK
Forecast period: 1200 UTC 21 May 2022 to 0600 UTC 22 May 2022
Forecast type: FROM: standard forecast or significant change
Winds: from the NNE (20 degrees) at 15 MPH (13 knots; 6.7 m/s)
Visibility: 6 or more miles (10+ km)
Ceiling: unknown
Clouds: missing
Weather: NSW  (no significant weather)
Text: TEMPO 2112/2118 03015G25KT
Forecast period: 1200 to 1800 UTC 21 May 2022
Forecast type: TEMPORARY: The following changes expected for less than half the time period
Winds: from the NNE (30 degrees) at 17 MPH (15 knots; 7.7 m/s)
gusting to 29 MPH (25 knots; 12.9 m/s)
Visibility: missing
Ceiling: unknown
Clouds: missing
Weather: no significant weather forecast for this period
Text: BECMG 2206/2208 35006KT 9999 SCT035
Forecast period: 0600 to 1200 UTC 22 May 2022
Forecast type: BECOMING: Conditions expected to become as follows by 0800 UTC 22 May 2022
Winds: from the N (350 degrees) at 7 MPH (6 knots; 3.1 m/s)
Visibility: 6 or more miles (10+ km)
Ceiling: at least 12,000 feet AGL
Clouds: scattered clouds at 3500 feet AGL
Weather: NSW  (no significant weather)